createdAt,value
2023-02-03T00:01:56.911Z,77.77
2023-02-03T00:04:24.104Z,78.14
2023-02-03T00:06:51.494Z,76.49
2023-02-03T00:09:19.986Z,74.64
2023-02-03T00:11:47.613Z,74.03
2023-02-03T00:14:14.726Z,73.66
2023-02-03T00:16:41.914Z,72.67
2023-02-03T00:19:09.175Z,72.63
2023-02-03T00:21:36.295Z,74.25
2023-02-03T00:24:03.512Z,74.85
2023-02-03T00:26:30.763Z,75.25
2023-02-03T00:29:00.272Z,73.75
2023-02-03T00:31:27.445Z,73.28
2023-02-03T00:33:56.673Z,71.80
2023-02-03T00:36:25.054Z,70.47
2023-02-03T00:38:52.591Z,70.15
2023-02-03T00:41:21.231Z,69.85
2023-02-03T00:43:48.920Z,69.68
2023-02-03T00:46:16.391Z,70.16
2023-02-03T00:48:43.783Z,70.59
2023-02-03T00:51:11.017Z,70.36
2023-02-03T00:53:38.092Z,70.55
2023-02-03T00:56:11.999Z,70.38
2023-02-03T00:58:42.492Z,70.28
2023-02-03T01:01:10.276Z,69.82
2023-02-03T01:03:38.011Z,69.01
2023-02-03T01:06:12.666Z,68.71
2023-02-03T01:08:40.401Z,67.95
2023-02-03T01:11:10.013Z,67.05
2023-02-03T01:13:38.051Z,66.62
2023-02-03T01:16:14.445Z,65.65
2023-02-03T01:18:42.929Z,66.10
2023-02-03T01:21:15.593Z,66.83
2023-02-03T01:23:43.099Z,67.27
2023-02-03T01:26:13.499Z,67.26
2023-02-03T01:28:41.272Z,67.49
2023-02-03T01:31:14.349Z,68.28
2023-02-03T01:33:45.692Z,68.63
2023-02-03T01:36:13.203Z,67.87
2023-02-03T01:38:40.589Z,67.13
2023-02-03T01:41:10.969Z,66.54
2023-02-03T01:43:43.999Z,65.72
2023-02-03T01:46:31.586Z,65.09
2023-02-03T01:49:01.655Z,67.77
2023-02-03T01:51:30.008Z,71.24
2023-02-03T01:53:57.638Z,73.15
2023-02-03T01:56:29.918Z,76.03
2023-02-03T01:58:59.823Z,76.95
2023-02-03T02:01:31.330Z,76.38
2023-02-03T02:04:01.110Z,75.59
2023-02-03T02:06:28.484Z,76.14
2023-02-03T02:08:58.799Z,75.50
2023-02-03T02:11:26.913Z,74.30
2023-02-03T02:13:57.977Z,76.24
2023-02-03T02:16:34.371Z,77.22
2023-02-03T02:19:24.101Z,78.67
2023-02-03T02:22:13.043Z,78.99
2023-02-03T02:24:55.171Z,80.04
2023-02-03T02:27:34.691Z,81.73
2023-02-03T02:30:32.947Z,83.63
2023-02-03T02:33:27.848Z,81.61
2023-02-03T02:36:06.518Z,79.10
2023-02-03T02:38:42.347Z,79.94
2023-02-03T02:41:24.113Z,78.21
2023-02-03T02:44:05.138Z,79.42
2023-02-03T02:46:45.050Z,77.12
2023-02-03T02:49:40.220Z,80.64
2023-02-03T02:52:09.120Z,79.19
2023-02-03T02:54:41.977Z,77.27
2023-02-03T02:57:13.121Z,75.97
2023-02-03T02:59:40.309Z,75.79
2023-02-03T03:02:10.767Z,75.66
2023-02-03T03:04:41.084Z,76.56
2023-02-03T03:07:14.456Z,76.34
2023-02-03T03:09:47.018Z,76.18
2023-02-03T03:12:35.919Z,76.59
2023-02-03T03:15:16.411Z,77.98
2023-02-03T03:17:52.920Z,78.27
2023-02-03T03:20:24.417Z,77.16
2023-02-03T03:23:31.736Z,77.41
2023-02-03T03:26:14.238Z,78.97
2023-02-03T03:28:52.656Z,79.14
2023-02-03T03:31:20.706Z,79.91
2023-02-03T03:33:48.626Z,79.06
2023-02-03T03:36:38.280Z,79.09
2023-02-03T03:39:14.879Z,80.91
2023-02-03T03:41:47.873Z,78.57
2023-02-03T03:44:18.158Z,77.69
2023-02-03T03:46:52.245Z,79.06
2023-02-03T03:49:21.804Z,79.54
2023-02-03T03:51:57.241Z,78.08
2023-02-03T03:54:25.858Z,78.45
2023-02-03T03:57:06.321Z,77.83
2023-02-03T03:59:37.452Z,77.88
2023-02-03T04:02:05.001Z,77.06
2023-02-03T04:04:36.506Z,76.73
2023-02-03T04:07:04.072Z,77.82
2023-02-03T04:09:31.671Z,76.68
2023-02-03T04:12:01.585Z,76.08
2023-02-03T04:14:30.128Z,77.16
2023-02-03T04:16:58.154Z,75.80
2023-02-03T04:19:26.388Z,76.64
2023-02-03T04:21:53.552Z,76.66
2023-02-03T04:24:20.836Z,76.68
2023-02-03T04:26:48.063Z,76.44
2023-02-03T04:29:15.256Z,76.31
2023-02-03T04:31:42.466Z,77.00
2023-02-03T04:34:09.744Z,78.66
2023-02-03T04:36:36.827Z,78.68
2023-02-03T04:39:04.019Z,78.95
2023-02-03T04:41:31.180Z,82.91
2023-02-03T04:43:58.228Z,81.99
2023-02-03T04:46:25.610Z,81.04
2023-02-03T04:48:52.837Z,81.82
2023-02-03T04:51:20.115Z,83.90
2023-02-03T04:53:47.239Z,84.61
2023-02-03T04:56:15.985Z,87.04
2023-02-03T04:58:43.368Z,84.89
2023-02-03T05:01:10.744Z,87.21
2023-02-03T05:03:38.449Z,88.94
2023-02-03T05:06:05.880Z,90.46
2023-02-03T05:08:33.059Z,89.05
2023-02-03T05:11:02.085Z,89.90
2023-02-03T05:13:29.520Z,88.65
2023-02-03T05:15:56.702Z,89.58
2023-02-03T05:18:23.917Z,92.00
2023-02-03T05:20:51.047Z,90.09
2023-02-03T05:23:18.124Z,88.56
2023-02-03T05:25:45.570Z,86.66
2023-02-03T05:28:12.765Z,88.63
2023-02-03T05:30:40.723Z,90.16
2023-02-03T05:33:08.071Z,89.13
2023-02-03T05:35:35.463Z,89.97
2023-02-03T05:38:03.208Z,91.00
2023-02-03T05:40:49.374Z,90.64
2023-02-03T05:43:22.314Z,91.96
2023-02-03T05:45:50.173Z,91.30
2023-02-03T05:48:21.405Z,90.27
2023-02-03T05:50:51.996Z,88.03
2023-02-03T05:53:19.594Z,89.88
2023-02-03T05:55:52.341Z,89.45
2023-02-03T05:58:19.936Z,89.27
2023-02-03T06:00:47.710Z,89.42
2023-02-03T06:03:15.163Z,88.91
2023-02-03T06:05:44.011Z,93.38
2023-02-03T06:08:11.495Z,93.59
2023-02-03T06:10:42.114Z,94.02
2023-02-03T06:13:40.010Z,93.74
2023-02-03T06:19:26.486Z,94.93
2023-02-03T06:22:01.460Z,95.31
2023-02-03T06:24:31.237Z,95.17
2023-02-03T06:27:02.991Z,95.35
2023-02-03T06:29:32.580Z,95.36
2023-02-03T06:32:00.588Z,97.32
2023-02-03T06:34:30.513Z,96.35
2023-02-03T06:37:03.101Z,95.43
2023-02-03T06:39:42.273Z,96.99
2023-02-03T06:42:14.901Z,94.56
2023-02-03T06:44:58.979Z,93.18
2023-02-03T06:47:36.987Z,98.30
2023-02-03T06:50:07.366Z,100.00
2023-02-03T06:52:56.157Z,100.00
2023-02-03T06:55:26.601Z,99.90
2023-02-03T06:57:59.000Z,100.00
2023-02-03T07:00:29.673Z,100.00
2023-02-03T07:03:04.563Z,100.00
2023-02-03T07:05:37.329Z,100.00
2023-02-03T07:08:09.910Z,100.00
2023-02-03T07:10:42.553Z,99.88
2023-02-03T07:13:10.875Z,100.00
2023-02-03T07:15:42.938Z,99.76
2023-02-03T07:18:11.883Z,100.00
2023-02-03T07:20:40.383Z,100.00
2023-02-03T07:23:09.255Z,100.00
2023-02-03T07:25:51.007Z,100.00
2023-02-03T07:28:33.627Z,100.00
2023-02-03T07:31:10.004Z,100.00
2023-02-03T07:33:38.963Z,100.00
2023-02-03T07:36:11.891Z,100.00
2023-02-03T07:38:39.858Z,100.00
2023-02-03T07:41:09.139Z,100.00
2023-02-03T07:43:37.635Z,100.00
2023-02-03T07:46:06.396Z,100.00
2023-02-03T07:48:39.952Z,100.00
2023-02-03T07:51:09.025Z,100.00
2023-02-03T07:53:36.308Z,100.00
2023-02-03T07:56:04.741Z,100.00
2023-02-03T07:58:34.525Z,100.00
2023-02-03T08:01:01.921Z,100.00
2023-02-03T08:03:33.540Z,100.00
2023-02-03T08:06:02.619Z,100.00
2023-02-03T08:08:45.830Z,100.00
2023-02-03T08:11:13.307Z,100.00
2023-02-03T08:13:40.921Z,100.00
2023-02-03T08:16:17.826Z,100.00
2023-02-03T08:18:46.457Z,100.00
2023-02-03T08:21:14.301Z,100.00
2023-02-03T08:23:41.485Z,100.00
2023-02-03T08:26:08.653Z,100.00
2023-02-03T08:28:35.831Z,100.00
2023-02-03T08:31:10.152Z,100.00
2023-02-03T08:36:22.846Z,100.00
2023-02-03T08:38:50.056Z,100.00
2023-02-03T08:41:18.184Z,100.00
2023-02-03T08:43:45.391Z,100.00
2023-02-03T08:46:13.623Z,100.00
2023-02-03T08:48:40.789Z,100.00
2023-02-03T08:51:14.017Z,100.00
2023-02-03T08:53:41.449Z,100.00
2023-02-03T08:56:10.717Z,100.00
2023-02-03T08:58:38.844Z,100.00
2023-02-03T09:01:10.301Z,100.00
2023-02-03T09:03:38.138Z,100.00
2023-02-03T09:06:06.741Z,100.00
2023-02-03T09:08:34.250Z,100.00
2023-02-03T09:11:01.589Z,100.00
2023-02-03T09:13:28.782Z,100.00
2023-02-03T09:16:00.238Z,100.00
2023-02-03T09:18:27.418Z,100.00
2023-02-03T09:21:00.975Z,100.00
2023-02-03T09:23:28.263Z,100.00
2023-02-03T09:25:55.898Z,100.00
2023-02-03T09:28:23.252Z,100.00
2023-02-03T09:30:50.451Z,100.00
2023-02-03T09:33:17.547Z,100.00
2023-02-03T09:35:52.532Z,100.00
2023-02-03T09:38:20.226Z,100.00
2023-02-03T09:41:09.380Z,100.00
2023-02-03T09:44:35.596Z,100.00
2023-02-03T09:47:29.886Z,100.00
2023-02-03T09:50:01.478Z,100.00
2023-02-03T09:52:32.739Z,100.00
2023-02-03T09:55:19.756Z,100.00
2023-02-03T09:59:25.184Z,100.00
2023-02-03T10:02:21.308Z,100.00
2023-02-03T10:05:07.947Z,100.00
2023-02-03T12:50:04.750Z,100.00
2023-02-03T12:53:21.466Z,100.00
2023-02-03T12:56:03.868Z,100.00
2023-02-03T12:59:11.373Z,100.00
2023-02-03T13:01:49.600Z,100.00
2023-02-03T13:04:34.905Z,100.00
2023-02-03T13:07:17.491Z,100.00
2023-02-03T13:10:15.528Z,100.00
2023-02-03T13:12:47.167Z,100.00
2023-02-03T13:15:26.392Z,100.00
2023-02-03T13:18:15.315Z,99.99
2023-02-03T13:25:03.858Z,100.00
2023-02-03T13:43:06.285Z,100.00
2023-02-03T13:45:42.981Z,100.00
2023-02-03T14:02:54.614Z,100.00
2023-02-03T14:05:44.674Z,100.00
2023-02-03T14:08:25.610Z,100.00
2023-02-03T14:27:23.498Z,100.00
2023-02-03T14:30:19.003Z,100.00
2023-02-03T14:32:59.155Z,100.00
2023-02-03T14:35:36.657Z,100.00
2023-02-03T14:38:15.409Z,100.00
2023-02-03T14:40:46.941Z,100.00
2023-02-03T14:43:40.488Z,100.00
2023-02-03T14:46:27.148Z,100.00
2023-02-03T14:49:10.809Z,100.00
2023-02-03T14:51:51.682Z,100.00
2023-02-03T14:54:38.776Z,100.00
2023-02-03T14:57:25.963Z,100.00
2023-02-03T15:00:27.909Z,100.00
2023-02-03T15:03:11.388Z,100.00
2023-02-03T15:05:42.345Z,100.00
2023-02-03T15:08:33.736Z,100.00
2023-02-03T15:11:24.918Z,100.00
2023-02-03T15:13:55.868Z,100.00
2023-02-03T15:16:27.423Z,100.00
2023-02-03T15:18:58.835Z,100.00
2023-02-03T15:21:27.512Z,100.00
2023-02-03T15:23:56.344Z,100.00
2023-02-03T15:26:27.255Z,100.00
2023-02-03T15:28:59.635Z,100.00
2023-02-03T15:31:32.657Z,100.00
2023-02-03T15:34:21.076Z,100.00
2023-02-03T15:36:54.695Z,100.00
2023-02-03T15:39:32.612Z,100.00
2023-02-03T15:42:03.187Z,100.00
2023-02-03T15:45:01.419Z,100.00
2023-02-03T15:47:47.112Z,100.00
2023-02-03T15:50:49.270Z,100.00
2023-02-03T15:58:07.285Z,100.00
2023-02-03T16:00:41.428Z,100.00
2023-02-03T16:03:21.787Z,100.00
2023-02-03T16:05:50.694Z,100.00
2023-02-03T16:08:49.345Z,100.00
2023-02-03T16:11:23.890Z,100.00
2023-02-03T16:13:56.666Z,100.00
2023-02-03T16:16:30.124Z,100.00
2023-02-03T16:19:12.741Z,100.00
2023-02-03T16:21:54.689Z,100.00
2023-02-03T16:24:33.099Z,100.00
2023-02-03T16:27:26.921Z,100.00
2023-02-03T16:30:26.595Z,100.00
2023-02-03T16:33:39.945Z,100.00
2023-02-03T16:36:32.662Z,100.00
2023-02-03T16:39:22.308Z,100.00
2023-02-03T16:42:09.649Z,100.00
2023-02-03T16:44:56.758Z,100.00
2023-02-03T16:47:46.969Z,100.00
2023-02-03T16:50:39.381Z,100.00
2023-02-03T16:53:18.065Z,100.00
2023-02-03T16:55:49.124Z,100.00
2023-02-03T16:58:17.881Z,100.00
2023-02-03T17:00:50.197Z,100.00
2023-02-03T17:03:22.513Z,100.00
2023-02-03T17:05:53.287Z,100.00
2023-02-03T17:08:25.054Z,100.00
2023-02-03T17:10:54.199Z,100.00
2023-02-03T17:13:24.980Z,100.00
2023-02-03T17:15:53.566Z,100.00
2023-02-03T17:18:22.788Z,100.00
2023-02-03T17:20:51.449Z,100.00
2023-02-03T17:23:19.975Z,100.00
2023-02-03T17:25:50.196Z,100.00
2023-02-03T17:28:18.752Z,100.00
2023-02-03T17:31:00.269Z,100.00
2023-02-03T17:33:30.167Z,100.00
2023-02-03T17:36:07.520Z,100.00
2023-02-03T17:55:12.455Z,100.00
2023-02-03T17:57:41.016Z,100.00
2023-02-03T18:00:10.847Z,100.00
2023-02-03T18:02:45.354Z,100.00
2023-02-03T18:05:14.179Z,100.00
2023-02-03T18:07:42.732Z,100.00
2023-02-03T18:10:11.656Z,100.00
2023-02-03T18:12:40.771Z,100.00
2023-02-03T18:15:09.788Z,100.00
2023-02-03T18:17:44.387Z,100.00
2023-02-03T18:20:14.208Z,100.00
2023-02-03T18:22:45.300Z,100.00
2023-02-03T18:25:18.316Z,100.00
2023-02-03T18:27:47.427Z,100.00
2023-02-03T18:30:18.484Z,100.00
2023-02-03T18:32:53.142Z,100.00
2023-02-03T18:35:21.895Z,100.00
2023-02-03T18:37:51.954Z,100.00
2023-02-03T18:40:20.596Z,100.00
2023-02-03T18:42:49.604Z,100.00
2023-02-03T18:45:18.167Z,100.00
2023-02-03T18:47:46.687Z,100.00
2023-02-03T18:50:15.997Z,100.00
2023-02-03T18:52:44.913Z,100.00
2023-02-03T18:55:14.282Z,100.00
2023-02-03T18:57:42.855Z,100.00
2023-02-03T19:00:14.204Z,100.00
2023-02-03T19:02:42.999Z,100.00
2023-02-03T19:05:12.014Z,100.00
2023-02-03T19:07:40.550Z,100.00
2023-02-03T19:10:15.252Z,100.00
2023-02-03T19:12:44.186Z,100.00
2023-02-03T19:15:12.793Z,100.00
2023-02-03T19:17:41.298Z,100.00
2023-02-03T19:20:11.158Z,100.00
2023-02-03T19:22:39.655Z,100.00
2023-02-03T19:25:08.742Z,100.00
2023-02-03T19:27:37.443Z,100.00
2023-02-03T19:30:07.297Z,100.00
2023-02-03T19:32:35.815Z,100.00
2023-02-03T19:35:07.986Z,100.00
2023-02-03T19:37:36.562Z,100.00
2023-02-03T19:40:06.803Z,100.00
2023-02-03T19:42:35.422Z,100.00
2023-02-03T19:45:05.737Z,100.00
2023-02-03T19:47:35.125Z,100.00
2023-02-03T19:50:04.897Z,100.00
2023-02-03T19:52:34.728Z,100.00
2023-02-03T19:55:04.057Z,100.00
2023-02-03T19:57:54.037Z,100.00
2023-02-03T20:11:54.332Z,100.00
2023-02-03T20:14:43.330Z,100.00
2023-02-03T20:17:37.833Z,100.00
2023-02-03T20:20:12.278Z,100.00
2023-02-03T20:22:41.300Z,100.00
2023-02-03T20:33:14.337Z,100.00
2023-02-03T20:36:01.066Z,100.00
2023-02-03T20:38:30.360Z,100.00
2023-02-03T20:40:58.885Z,100.00
2023-02-03T20:43:29.341Z,100.00
2023-02-03T20:45:57.893Z,100.00
2023-02-03T20:48:27.164Z,100.00
2023-02-03T20:50:56.145Z,100.00
2023-02-03T20:53:26.906Z,100.00
2023-02-03T20:56:00.389Z,100.00
2023-02-03T20:58:37.017Z,100.00
2023-02-03T21:01:18.512Z,100.00
2023-02-03T21:04:06.051Z,100.00
2023-02-03T21:06:35.512Z,100.00
2023-02-03T21:09:20.054Z,100.00
2023-02-03T21:11:48.551Z,100.00
2023-02-03T21:14:27.722Z,100.00
2023-02-03T21:16:56.207Z,100.00
2023-02-03T21:19:32.655Z,100.00
2023-02-03T21:22:24.432Z,100.00
2023-02-03T21:24:59.163Z,100.00
2023-02-03T21:27:33.772Z,100.00
2023-02-03T21:30:22.899Z,100.00
2023-02-03T21:32:51.415Z,100.00
2023-02-03T21:35:25.055Z,100.00
2023-02-03T21:38:01.987Z,100.00
2023-02-03T21:40:34.162Z,100.00
2023-02-03T21:43:03.551Z,100.00
2023-02-03T21:45:38.439Z,100.00
2023-02-03T21:48:37.918Z,100.00
2023-02-03T21:51:24.029Z,100.00
2023-02-03T21:54:02.791Z,100.00
2023-02-03T21:56:42.552Z,100.00
2023-02-03T21:59:21.292Z,100.00
2023-02-03T22:01:50.714Z,100.00
2023-02-03T22:04:19.217Z,100.00
2023-02-03T22:06:50.694Z,100.00
2023-02-03T22:09:21.642Z,100.00
2023-02-03T22:11:51.415Z,100.00
2023-02-03T22:14:21.311Z,100.00
2023-02-03T22:16:49.911Z,100.00
2023-02-03T22:19:18.511Z,100.00
2023-02-03T22:21:48.783Z,100.00
2023-02-03T22:24:17.315Z,100.00
2023-02-03T22:26:46.196Z,100.00
2023-02-03T22:29:14.647Z,100.00
2023-02-03T22:31:43.608Z,100.00
2023-02-03T22:34:12.238Z,100.00
2023-02-03T22:36:40.702Z,100.00
2023-02-03T22:39:11.314Z,100.00
2023-02-03T22:41:39.844Z,100.00
2023-02-03T22:44:08.273Z,100.00
2023-02-03T22:46:36.744Z,100.00
2023-02-03T22:49:05.209Z,100.00
2023-02-03T22:51:33.798Z,100.00
2023-02-03T22:54:02.610Z,100.00
2023-02-03T22:56:31.157Z,100.00
2023-02-03T22:58:59.551Z,100.00
2023-02-03T23:01:28.022Z,100.00
2023-02-03T23:03:56.524Z,100.00
2023-02-03T23:06:24.967Z,100.00
2023-02-03T23:08:55.928Z,100.00
2023-02-03T23:11:24.523Z,100.00
2023-02-03T23:13:52.990Z,100.00
2023-02-03T23:16:22.615Z,100.00
2023-02-03T23:18:51.188Z,100.00
2023-02-03T23:21:19.701Z,100.00
2023-02-03T23:23:48.258Z,100.00
2023-02-03T23:26:17.686Z,100.00
2023-02-03T23:28:46.191Z,100.00
2023-02-03T23:31:15.542Z,100.00
2023-02-03T23:34:04.383Z,100.00
2023-02-03T23:36:34.784Z,100.00
2023-02-03T23:39:04.660Z,100.00
2023-02-03T23:41:33.934Z,100.00
2023-02-03T23:44:02.506Z,100.00
2023-02-03T23:46:31.465Z,100.00
2023-02-03T23:48:59.918Z,100.00
2023-02-03T23:51:28.404Z,100.00
2023-02-03T23:53:56.937Z,100.00
2023-02-03T23:56:25.328Z,100.00
2023-02-03T23:58:53.913Z,100.00
